createdAt,value
2022-12-24T00:01:33.688Z,1.60
2022-12-24T00:04:01.852Z,1.67
2022-12-24T00:06:30.619Z,1.67
2022-12-24T00:08:58.726Z,1.73
2022-12-24T00:11:26.589Z,1.58
2022-12-24T00:13:54.353Z,1.27
2022-12-24T00:16:22.268Z,1.60
2022-12-24T00:18:50.194Z,1.23
2022-12-24T00:21:18.316Z,1.10
2022-12-24T00:23:46.021Z,1.10
2022-12-24T00:26:14.625Z,1.20
2022-12-24T00:28:42.563Z,1.00
2022-12-24T00:31:14.022Z,0.85
2022-12-24T00:33:41.899Z,1.08
2022-12-24T00:36:10.380Z,1.80
2022-12-24T00:38:38.579Z,3.08
2022-12-24T00:41:25.107Z,4.13
2022-12-24T00:44:00.667Z,5.22
2022-12-24T00:46:30.775Z,4.40
2022-12-24T00:48:58.661Z,3.65
2022-12-24T00:51:27.055Z,3.10
2022-12-24T00:53:55.779Z,2.97
2022-12-24T00:56:23.863Z,2.40
2022-12-24T00:58:52.422Z,2.50
2022-12-24T01:01:22.247Z,2.30
2022-12-24T01:03:51.527Z,1.95
2022-12-24T01:06:22.174Z,1.42
2022-12-24T01:08:52.949Z,1.83
2022-12-24T01:11:21.142Z,1.58
2022-12-24T01:13:49.208Z,1.60
2022-12-24T01:16:20.336Z,1.70
2022-12-24T01:18:48.473Z,1.52
2022-12-24T01:21:17.196Z,1.80
2022-12-24T01:23:45.203Z,1.83
2022-12-24T01:26:13.155Z,1.60
2022-12-24T01:28:42.111Z,1.27
2022-12-24T01:31:19.629Z,1.90
2022-12-24T01:33:49.301Z,1.75
2022-12-24T01:36:17.448Z,1.85
2022-12-24T01:38:45.525Z,1.48
2022-12-24T01:41:41.808Z,1.30
2022-12-24T01:44:36.907Z,1.65
2022-12-24T01:47:30.314Z,1.65
2022-12-24T01:50:02.153Z,1.60
2022-12-24T01:52:36.737Z,1.20
2022-12-24T01:55:10.462Z,1.10
2022-12-24T01:57:55.255Z,1.30
2022-12-24T02:00:23.502Z,1.38
2022-12-24T02:02:53.754Z,1.30
2022-12-24T02:05:40.629Z,1.20
2022-12-24T02:08:09.145Z,1.23
2022-12-24T02:10:37.598Z,1.33
2022-12-24T02:13:06.608Z,1.20
2022-12-24T02:15:43.086Z,1.08
2022-12-24T02:18:25.019Z,1.27
2022-12-24T02:21:11.302Z,1.40
2022-12-24T02:23:48.664Z,1.25
2022-12-24T02:26:19.870Z,1.25
2022-12-24T02:29:05.955Z,1.00
2022-12-24T02:31:43.605Z,1.30
2022-12-24T02:34:25.629Z,1.20
2022-12-24T02:37:14.255Z,1.40
2022-12-24T02:39:51.859Z,1.30
2022-12-24T02:42:27.379Z,1.35
2022-12-24T02:45:06.307Z,1.30
2022-12-24T02:47:35.571Z,1.10
2022-12-24T02:50:07.784Z,1.48
2022-12-24T02:52:37.531Z,1.30
2022-12-24T02:55:13.905Z,1.15
2022-12-24T02:58:00.114Z,1.17
2022-12-24T03:00:36.640Z,0.95
2022-12-24T03:03:45.821Z,1.10
2022-12-24T03:06:42.147Z,1.25
2022-12-24T03:09:33.989Z,1.13
2022-12-24T03:12:12.413Z,1.15
2022-12-24T03:14:42.355Z,1.00
2022-12-24T03:17:11.005Z,1.17
2022-12-24T03:19:39.601Z,1.08
2022-12-24T03:22:11.992Z,0.88
2022-12-24T03:24:40.258Z,0.80
2022-12-24T03:27:11.071Z,0.70
2022-12-24T03:29:41.614Z,0.80
2022-12-24T03:32:09.769Z,0.70
2022-12-24T03:34:37.674Z,1.00
2022-12-24T03:37:05.737Z,0.80
2022-12-24T03:39:33.711Z,0.80
2022-12-24T03:42:02.987Z,0.85
2022-12-24T03:44:31.107Z,0.90
2022-12-24T03:46:58.956Z,0.82
2022-12-24T03:49:26.667Z,0.90
2022-12-24T03:51:54.467Z,0.70
2022-12-24T03:54:22.427Z,0.70
2022-12-24T03:56:50.283Z,0.77
2022-12-24T03:59:18.364Z,0.95
2022-12-24T04:01:46.388Z,0.70
2022-12-24T04:04:14.421Z,0.88
2022-12-24T04:06:42.368Z,0.80
2022-12-24T04:09:11.852Z,0.60
2022-12-24T04:11:39.655Z,0.63
2022-12-24T04:14:07.380Z,0.70
2022-12-24T04:16:35.223Z,0.70
2022-12-24T04:19:03.149Z,0.70
2022-12-24T04:21:30.795Z,0.95
2022-12-24T04:23:59.126Z,0.80
2022-12-24T04:26:26.858Z,0.80
2022-12-24T04:28:54.613Z,2.20
2022-12-24T04:31:22.575Z,4.57
2022-12-24T04:33:52.654Z,5.68
2022-12-24T04:36:20.777Z,5.03
2022-12-24T04:38:49.263Z,4.57
2022-12-24T04:41:24.182Z,3.22
2022-12-24T04:43:54.551Z,2.92
2022-12-24T04:46:25.452Z,2.00
2022-12-24T04:48:54.515Z,1.60
2022-12-24T04:51:23.540Z,1.40
2022-12-24T04:53:51.848Z,1.50
2022-12-24T04:56:29.326Z,1.30
2022-12-24T04:58:57.744Z,1.40
2022-12-24T05:01:28.567Z,1.30
2022-12-24T05:03:56.875Z,1.20
2022-12-24T05:06:31.733Z,1.10
2022-12-24T05:09:00.647Z,1.23
2022-12-24T05:11:28.903Z,0.90
2022-12-24T05:13:57.037Z,1.10
2022-12-24T05:16:26.582Z,1.10
2022-12-24T05:18:56.852Z,0.90
2022-12-24T05:21:27.161Z,1.20
2022-12-24T05:24:13.442Z,1.42
2022-12-24T05:26:51.869Z,1.20
2022-12-24T05:29:20.065Z,1.00
2022-12-24T05:31:48.155Z,0.90
2022-12-24T05:34:17.482Z,1.20
2022-12-24T05:36:45.532Z,1.20
2022-12-24T05:39:18.413Z,1.40
2022-12-24T05:41:48.024Z,1.40
2022-12-24T05:44:17.747Z,1.27
2022-12-24T05:46:45.731Z,1.42
2022-12-24T05:49:14.722Z,1.80
2022-12-24T05:51:42.715Z,1.80
2022-12-24T05:54:11.967Z,1.80
2022-12-24T05:56:39.950Z,2.10
2022-12-24T05:59:07.956Z,2.05
2022-12-24T06:01:36.362Z,1.95
2022-12-24T06:04:04.401Z,2.10
2022-12-24T06:06:33.284Z,2.28
2022-12-24T06:09:01.597Z,2.35
2022-12-24T06:11:29.531Z,2.53
2022-12-24T06:13:57.642Z,2.90
2022-12-24T06:16:26.259Z,3.00
2022-12-24T06:18:54.932Z,2.63
2022-12-24T06:21:24.388Z,2.33
2022-12-24T06:23:52.220Z,2.00
2022-12-24T06:26:22.904Z,1.70
2022-12-24T06:28:52.320Z,2.00
2022-12-24T06:31:22.755Z,1.92
2022-12-24T06:33:53.556Z,1.80
2022-12-24T06:36:24.158Z,1.70
2022-12-24T06:38:53.943Z,1.67
2022-12-24T06:41:22.609Z,1.63
2022-12-24T06:43:53.176Z,1.65
2022-12-24T06:46:22.149Z,1.30
2022-12-24T06:48:50.058Z,1.40
2022-12-24T06:51:20.273Z,1.60
2022-12-24T06:53:50.953Z,1.58
2022-12-24T06:56:20.477Z,1.50
2022-12-24T06:58:48.490Z,1.58
2022-12-24T07:01:18.304Z,1.70
2022-12-24T07:03:46.480Z,1.55
2022-12-24T07:06:27.025Z,1.58
2022-12-24T07:08:55.432Z,1.50
2022-12-24T07:11:25.282Z,1.60
2022-12-24T07:13:53.314Z,1.48
2022-12-24T07:16:22.042Z,1.60
2022-12-24T07:18:49.873Z,1.63
2022-12-24T07:21:17.640Z,1.90
2022-12-24T07:23:45.439Z,1.85
2022-12-24T07:26:13.557Z,1.88
2022-12-24T07:28:41.383Z,1.83
2022-12-24T07:31:09.509Z,1.92
2022-12-24T07:33:37.522Z,1.77
2022-12-24T07:36:07.858Z,2.00
2022-12-24T07:38:36.159Z,1.95
2022-12-24T07:41:04.062Z,1.80
2022-12-24T07:43:33.719Z,2.33
2022-12-24T07:46:01.461Z,1.92
2022-12-24T07:48:30.786Z,2.05
2022-12-24T07:50:59.649Z,2.00
2022-12-24T07:53:28.972Z,2.22
2022-12-24T07:55:57.101Z,1.90
2022-12-24T07:58:26.047Z,1.60
2022-12-24T08:01:01.033Z,1.80
2022-12-24T08:03:29.129Z,1.85
2022-12-24T08:05:58.692Z,1.65
2022-12-24T08:08:26.900Z,1.80
2022-12-24T08:11:00.364Z,1.70
2022-12-24T08:13:28.386Z,1.83
2022-12-24T08:15:56.361Z,1.60
2022-12-24T08:18:25.890Z,1.80
2022-12-24T08:20:57.312Z,2.00
2022-12-24T08:23:25.971Z,2.10
2022-12-24T08:25:54.461Z,2.00
2022-12-24T08:28:22.294Z,2.45
2022-12-24T08:30:51.809Z,2.47
2022-12-24T08:33:20.258Z,2.38
2022-12-24T08:35:49.783Z,2.30
2022-12-24T08:38:17.973Z,2.60
2022-12-24T08:40:49.505Z,4.38
2022-12-24T08:43:18.304Z,7.47
2022-12-24T08:45:49.390Z,10.90
2022-12-24T08:48:18.107Z,13.98
2022-12-24T08:50:46.327Z,13.05
2022-12-24T08:53:14.649Z,10.02
2022-12-24T08:55:42.739Z,7.03
2022-12-24T08:58:11.171Z,5.80
2022-12-24T09:00:39.321Z,4.40
2022-12-24T09:03:07.274Z,3.78
2022-12-24T09:05:35.026Z,3.72
2022-12-24T09:08:02.804Z,6.50
2022-12-24T09:10:30.569Z,8.43
2022-12-24T09:13:00.107Z,11.13
2022-12-24T09:15:28.231Z,13.18
2022-12-24T09:17:56.374Z,11.05
2022-12-24T09:20:28.525Z,7.80
2022-12-24T09:22:57.868Z,5.32
2022-12-24T09:25:26.748Z,4.40
2022-12-24T09:27:54.797Z,3.50
2022-12-24T09:30:22.961Z,3.17
2022-12-24T09:32:52.073Z,3.20
2022-12-24T09:35:21.742Z,2.55
2022-12-24T09:38:03.227Z,2.05
2022-12-24T09:40:39.375Z,2.00
2022-12-24T09:43:17.611Z,1.73
2022-12-24T09:46:15.500Z,3.50
2022-12-24T09:48:51.399Z,3.63
2022-12-24T09:51:32.164Z,3.92
2022-12-24T09:54:16.074Z,4.07
2022-12-24T09:56:46.279Z,3.25
2022-12-24T09:59:18.194Z,3.53
2022-12-24T10:01:46.979Z,3.17
2022-12-24T10:04:17.953Z,2.88
2022-12-24T10:06:52.806Z,3.00
2022-12-24T10:09:49.755Z,2.50
2022-12-24T10:12:36.768Z,2.00
2022-12-24T10:15:24.721Z,2.70
2022-12-24T10:17:53.116Z,3.10
2022-12-24T10:20:42.111Z,4.45
2022-12-24T10:23:19.837Z,8.45
2022-12-24T10:26:05.083Z,8.45
2022-12-24T10:28:38.751Z,7.40
2022-12-24T10:31:08.295Z,10.50
2022-12-24T10:33:50.045Z,17.63
2022-12-24T10:36:21.680Z,16.42
2022-12-24T10:38:49.764Z,12.35
2022-12-24T10:41:17.683Z,12.63
2022-12-24T10:43:46.979Z,10.48
2022-12-24T10:46:33.151Z,10.75
2022-12-24T10:49:04.846Z,9.68
2022-12-24T10:51:59.034Z,7.55
2022-12-24T10:54:29.459Z,6.47
2022-12-24T10:57:02.794Z,4.25
2022-12-24T10:59:39.839Z,3.50
2022-12-24T11:02:34.413Z,3.45
2022-12-24T11:05:25.478Z,3.17
2022-12-24T11:08:18.229Z,3.63
2022-12-24T11:11:11.640Z,3.30
2022-12-24T11:13:57.365Z,3.50
2022-12-24T11:16:33.864Z,2.80
2022-12-24T11:19:04.576Z,3.08
2022-12-24T11:21:40.643Z,2.40
2022-12-24T11:24:20.543Z,1.90
2022-12-24T11:26:49.089Z,2.13
2022-12-24T11:29:16.993Z,2.30
2022-12-24T11:31:46.149Z,2.28
2022-12-24T11:34:25.311Z,1.85
2022-12-24T11:36:57.152Z,2.03
2022-12-24T11:39:26.175Z,2.15
2022-12-24T11:41:54.612Z,2.15
2022-12-24T11:44:28.340Z,1.65
2022-12-24T11:47:00.046Z,1.95
2022-12-24T11:49:30.925Z,2.00
2022-12-24T11:52:11.995Z,2.08
2022-12-24T11:54:46.164Z,3.80
2022-12-24T11:57:17.864Z,4.40
2022-12-24T11:59:48.883Z,4.43
2022-12-24T12:02:29.317Z,4.30
2022-12-24T12:05:17.561Z,3.35
2022-12-24T12:07:50.447Z,2.70
2022-12-24T12:10:25.466Z,2.95
2022-12-24T12:13:05.587Z,3.38
2022-12-24T12:15:42.082Z,3.55
2022-12-24T12:18:16.871Z,3.33
2022-12-24T12:21:02.510Z,3.53
2022-12-24T12:23:44.295Z,3.72
2022-12-24T12:26:24.586Z,4.97
2022-12-24T12:29:20.623Z,7.60
2022-12-24T12:31:53.282Z,10.77
2022-12-24T12:34:41.219Z,12.68
2022-12-24T12:37:15.500Z,10.55
2022-12-24T12:39:44.151Z,8.95
2022-12-24T12:42:34.646Z,8.10
2022-12-24T12:45:11.541Z,6.63
2022-12-24T12:48:05.505Z,6.03
2022-12-24T12:50:56.904Z,5.93
2022-12-24T12:53:31.976Z,6.50
2022-12-24T12:56:25.920Z,8.55
2022-12-24T12:59:05.479Z,15.80
2022-12-24T13:01:42.242Z,15.32
2022-12-24T13:04:31.142Z,14.10
2022-12-24T13:07:14.152Z,15.13
2022-12-24T13:10:10.163Z,12.80
2022-12-24T13:12:47.751Z,17.15
2022-12-24T13:15:40.476Z,14.88
2022-12-24T13:18:20.367Z,12.15
2022-12-24T13:20:50.627Z,11.15
2022-12-24T13:23:23.019Z,9.15
2022-12-24T13:25:53.968Z,7.90
2022-12-24T13:28:24.700Z,7.32
2022-12-24T13:31:15.034Z,5.60
2022-12-24T13:33:43.008Z,6.05
2022-12-24T13:36:19.159Z,5.47
2022-12-24T13:38:49.807Z,6.00
2022-12-24T13:41:39.982Z,6.72
2022-12-24T13:44:13.276Z,7.78
2022-12-24T13:47:14.828Z,11.10
2022-12-24T13:49:45.379Z,13.52
2022-12-24T13:52:14.486Z,12.13
2022-12-24T13:54:49.420Z,10.00
2022-12-24T13:57:38.345Z,8.35
2022-12-24T14:00:21.292Z,7.35
2022-12-24T14:02:56.007Z,7.38
2022-12-24T14:05:35.620Z,10.65
2022-12-24T14:08:10.010Z,7.22
2022-12-24T14:10:59.797Z,6.78
2022-12-24T14:13:40.871Z,4.90
2022-12-24T14:16:26.227Z,5.22
2022-12-24T14:19:22.167Z,5.32
2022-12-24T14:21:59.598Z,6.18
2022-12-24T14:24:35.267Z,6.07
2022-12-24T14:27:24.504Z,6.85
2022-12-24T14:30:04.613Z,5.20
2022-12-24T14:32:41.980Z,5.47
2022-12-24T14:35:18.818Z,5.25
2022-12-24T14:37:50.615Z,5.72
2022-12-24T14:40:22.815Z,5.70
2022-12-24T14:43:00.918Z,5.45
2022-12-24T14:46:03.521Z,5.43
2022-12-24T14:48:55.457Z,5.35
2022-12-24T14:51:36.282Z,5.72
2022-12-24T14:54:32.937Z,6.10
2022-12-24T14:57:28.002Z,6.95
2022-12-24T15:00:00.423Z,6.70
2022-12-24T15:02:43.532Z,7.07
2022-12-24T15:05:28.681Z,8.57
2022-12-24T15:08:00.693Z,8.68
2022-12-24T15:10:41.925Z,8.48
2022-12-24T15:13:40.779Z,7.57
2022-12-24T15:16:30.021Z,7.35
2022-12-24T15:19:03.146Z,5.05
2022-12-24T15:21:33.425Z,5.93
2022-12-24T15:24:01.398Z,5.30
2022-12-24T15:26:37.597Z,4.78
2022-12-24T15:29:21.259Z,5.30
2022-12-24T15:32:05.909Z,5.22
2022-12-24T15:34:43.346Z,5.82
2022-12-24T15:37:15.075Z,5.10
2022-12-24T15:39:43.686Z,5.00
2022-12-24T15:42:19.400Z,8.75
2022-12-24T15:45:01.740Z,8.05
2022-12-24T15:47:38.596Z,6.78
2022-12-24T15:50:25.298Z,6.55
2022-12-24T15:53:20.421Z,5.68
2022-12-24T15:55:46.174Z,5.05
2022-12-24T15:58:29.931Z,5.00
2022-12-24T16:01:18.037Z,4.30
2022-12-24T16:03:49.387Z,3.80
2022-12-24T16:06:18.392Z,4.43
2022-12-24T16:08:46.960Z,4.32
2022-12-24T16:11:19.676Z,4.88
2022-12-24T16:14:21.085Z,6.82
2022-12-24T16:16:50.709Z,6.55
2022-12-24T16:19:23.182Z,5.90
2022-12-24T16:21:57.444Z,4.95
2022-12-24T16:24:29.095Z,4.07
2022-12-24T16:26:59.412Z,4.13
2022-12-24T16:29:27.816Z,4.90
2022-12-24T16:31:59.115Z,6.93
2022-12-24T16:34:31.031Z,10.80
2022-12-24T16:37:01.956Z,9.98
2022-12-24T16:39:32.933Z,8.82
2022-12-24T16:42:21.706Z,7.03
2022-12-24T16:44:52.885Z,6.15
2022-12-24T16:47:41.775Z,5.80
2022-12-24T16:50:16.322Z,5.10
2022-12-24T16:52:44.895Z,3.97
2022-12-24T16:55:19.288Z,3.83
2022-12-24T16:57:47.120Z,3.88
2022-12-24T17:00:18.722Z,3.40
2022-12-24T17:02:48.388Z,3.83
2022-12-24T17:05:18.214Z,3.50
2022-12-24T17:07:47.474Z,3.60
2022-12-24T17:10:15.593Z,4.00
2022-12-24T17:12:44.676Z,3.90
2022-12-24T17:15:12.893Z,4.28
2022-12-24T17:17:41.145Z,4.60
2022-12-24T17:20:09.459Z,5.28
2022-12-24T17:22:37.536Z,5.95
2022-12-24T17:25:06.585Z,5.88
2022-12-24T17:27:34.717Z,4.97
2022-12-24T17:30:03.120Z,5.18
2022-12-24T17:32:31.211Z,4.50
2022-12-24T17:35:00.216Z,3.97
2022-12-24T17:37:28.495Z,4.00
2022-12-24T17:39:56.813Z,3.85
2022-12-24T17:42:24.585Z,3.95
2022-12-24T17:44:52.305Z,4.03
2022-12-24T17:47:20.153Z,4.38
2022-12-24T17:49:49.694Z,4.22
2022-12-24T17:52:18.646Z,4.78
2022-12-24T17:54:46.534Z,4.97
2022-12-24T17:57:14.530Z,4.75
2022-12-24T17:59:42.719Z,5.13
2022-12-24T18:02:13.120Z,5.68
2022-12-24T18:04:44.660Z,5.72
2022-12-24T18:07:13.609Z,5.68
2022-12-24T18:09:45.145Z,6.20
2022-12-24T18:12:14.347Z,5.82
2022-12-24T18:14:42.126Z,7.35
2022-12-24T18:17:10.136Z,7.45
2022-12-24T18:19:37.855Z,8.02
2022-12-24T18:22:05.571Z,6.78
2022-12-24T18:24:34.968Z,6.30
2022-12-24T18:27:04.311Z,6.53
2022-12-24T18:29:32.244Z,7.28
2022-12-24T18:32:00.137Z,7.75
2022-12-24T18:34:28.248Z,7.88
2022-12-24T18:36:56.665Z,8.13
2022-12-24T18:39:24.380Z,7.80
2022-12-24T18:41:52.524Z,7.00
2022-12-24T18:44:25.171Z,6.55
2022-12-24T18:46:54.168Z,6.40
2022-12-24T18:49:22.021Z,5.28
2022-12-24T18:51:49.900Z,5.57
2022-12-24T18:54:17.680Z,6.10
2022-12-24T18:56:45.660Z,5.78
2022-12-24T18:59:13.654Z,5.82
2022-12-24T19:01:44.232Z,6.25
2022-12-24T19:04:15.185Z,6.18
2022-12-24T19:06:50.755Z,8.82
2022-12-24T19:09:21.637Z,11.88
2022-12-24T19:11:49.766Z,11.38
2022-12-24T19:14:20.460Z,11.35
2022-12-24T19:16:49.823Z,10.30
2022-12-24T19:19:18.879Z,9.88
2022-12-24T19:21:46.705Z,14.50
2022-12-24T19:24:14.845Z,21.10
2022-12-24T19:26:42.640Z,24.13
2022-12-24T19:29:10.697Z,31.10
2022-12-24T19:31:38.848Z,31.75
2022-12-24T19:34:07.200Z,33.20
2022-12-24T19:36:36.730Z,34.20
2022-12-24T19:39:04.731Z,28.88
2022-12-24T19:41:33.155Z,23.08
2022-12-24T19:44:02.375Z,19.60
2022-12-24T19:46:33.319Z,16.40
2022-12-24T19:49:07.918Z,14.05
2022-12-24T19:51:39.066Z,12.98
2022-12-24T19:54:14.988Z,13.63
2022-12-24T19:56:46.491Z,13.85
2022-12-24T19:59:14.298Z,13.52
2022-12-24T20:01:42.334Z,11.48
2022-12-24T20:04:10.754Z,11.52
2022-12-24T20:06:39.491Z,10.50
2022-12-24T20:09:08.724Z,10.50
2022-12-24T20:11:36.519Z,10.90
2022-12-24T20:14:07.905Z,10.15
2022-12-24T20:16:36.122Z,9.35
2022-12-24T20:19:06.883Z,9.40
2022-12-24T20:21:38.222Z,9.45
2022-12-24T20:24:07.204Z,8.95
2022-12-24T20:26:36.517Z,9.52
2022-12-24T20:29:12.434Z,9.25
2022-12-24T20:31:42.933Z,9.15
2022-12-24T20:34:11.558Z,8.80
2022-12-24T20:36:39.648Z,9.75
2022-12-24T20:39:08.019Z,9.68
2022-12-24T20:41:37.590Z,11.75
2022-12-24T20:44:05.944Z,11.50
2022-12-24T20:46:34.506Z,10.73
2022-12-24T20:49:03.845Z,9.60
2022-12-24T20:51:31.647Z,8.90
2022-12-24T20:54:01.855Z,8.10
2022-12-24T20:56:31.149Z,8.20
2022-12-24T20:59:02.222Z,7.75
2022-12-24T21:01:30.881Z,7.60
2022-12-24T21:04:04.584Z,6.78
2022-12-24T21:06:36.858Z,6.97
2022-12-24T21:09:06.621Z,7.90
2022-12-24T21:11:48.413Z,7.43
2022-12-24T21:14:24.939Z,7.78
2022-12-24T21:16:54.493Z,8.23
2022-12-24T21:19:25.770Z,9.23
2022-12-24T21:21:53.699Z,8.70
2022-12-24T21:24:21.453Z,8.70
2022-12-24T21:26:49.481Z,7.95
2022-12-24T21:29:17.866Z,7.90
2022-12-24T21:31:46.224Z,7.93
2022-12-24T21:34:14.221Z,7.00
2022-12-24T21:36:42.804Z,8.25
2022-12-24T21:39:10.592Z,8.82
2022-12-24T21:41:38.289Z,8.77
2022-12-24T21:44:05.934Z,9.57
2022-12-24T21:46:34.021Z,9.95
2022-12-24T21:49:20.900Z,9.95
2022-12-24T21:51:51.516Z,9.80
2022-12-24T21:54:23.530Z,9.20
2022-12-24T21:57:11.515Z,8.48
2022-12-24T21:59:40.616Z,7.25
2022-12-24T22:02:15.725Z,6.70
2022-12-24T22:04:44.638Z,6.43
2022-12-24T22:07:46.732Z,6.60
2022-12-24T22:10:33.536Z,6.30
2022-12-24T22:13:06.533Z,6.07
2022-12-24T22:15:35.924Z,9.30
2022-12-24T22:18:03.813Z,22.15
2022-12-24T22:20:31.814Z,26.58
2022-12-24T22:23:09.953Z,39.22
2022-12-24T22:25:39.622Z,39.60
2022-12-24T22:28:08.076Z,31.13
2022-12-24T22:30:42.038Z,24.05
2022-12-24T22:33:11.432Z,20.88
2022-12-24T22:35:40.492Z,21.40
2022-12-24T22:38:09.342Z,19.20
2022-12-24T22:40:41.083Z,19.52
2022-12-24T22:43:09.040Z,22.50
2022-12-24T22:45:39.197Z,25.00
2022-12-24T22:48:08.288Z,22.73
2022-12-24T22:50:36.491Z,20.90
2022-12-24T22:53:04.342Z,20.58
2022-12-24T22:55:32.128Z,18.33
2022-12-24T22:58:00.505Z,19.73
2022-12-24T23:00:55.892Z,15.80
2022-12-24T23:03:25.497Z,13.98
2022-12-24T23:06:06.809Z,12.10
2022-12-24T23:08:38.072Z,9.07
2022-12-24T23:11:14.486Z,8.65
2022-12-24T23:14:04.079Z,8.40
2022-12-24T23:16:34.034Z,8.57
2022-12-24T23:19:04.707Z,8.73
2022-12-24T23:21:33.198Z,7.43
2022-12-24T23:24:02.142Z,7.03
2022-12-24T23:26:30.281Z,6.65
2022-12-24T23:28:58.975Z,6.10
2022-12-24T23:31:27.318Z,5.47
2022-12-24T23:33:55.029Z,4.38
2022-12-24T23:36:23.293Z,4.93
2022-12-24T23:38:53.713Z,4.82
2022-12-24T23:41:22.456Z,4.95
2022-12-24T23:43:50.236Z,4.63
2022-12-24T23:46:19.889Z,5.80
2022-12-24T23:48:49.322Z,6.30
2022-12-24T23:51:19.785Z,6.38
2022-12-24T23:53:49.300Z,6.53
2022-12-24T23:56:17.076Z,5.68
2022-12-24T23:58:47.409Z,6.68
